AEE412 LGKL-EFHK
Flight info
| Callsign | AEE412 |
|---|---|
| Flight time | N/A |
| Altitude | 32000 |
| Route | ANEPI DCT TRL UN1 ARA UL611 GARTA/N0452F340 DCT DIMIS DCT ALELU DCT RISTU DCT PARAK/N0454F350 DCT KEKED DCT PODAN M857 OBOSO DCT BESOT DCT VABER/N0453F360 DCT GUNTA/N0456F350 M857 SOKVA DCT ANAMA DCT KEMET Q11 INTOR |
| Aircraft | A320/M-SDE3FGHIRWY/LB1 |
Departure
| Time | 2026-04-22 13:47 |
|---|---|
| Airport | Kalamata Airport (LGKL) |
Arrival
| Time | N/A |
|---|---|
| Airport | Helsinki Vantaa Airport (EFHK) |
| Time | Latitude | Longitude | Altitude | Speed | Heading |
|---|---|---|---|---|---|
| 2026-04-22 13:11 | 37.05536 | 22.03337 | 35 ft | 0 kts | 120° |
| 2026-04-22 13:39 | 37.05532 | 22.03343 | 34 ft | 1 kts | 134° |
| 2026-04-22 13:39 | 37.05516 | 22.03338 | 34 ft | 4 kts | 203° |
| 2026-04-22 13:39 | 37.05492 | 22.03302 | 34 ft | 8 kts | 245° |
| 2026-04-22 13:40 | 37.05492 | 22.03223 | 35 ft | 10 kts | 296° |
| 2026-04-22 13:40 | 37.05519 | 22.03139 | 35 ft | 11 kts | 284° |
| 2026-04-22 13:40 | 37.05539 | 22.03040 | 34 ft | 12 kts | 285° |
| 2026-04-22 13:40 | 37.05593 | 22.02959 | 34 ft | 14 kts | 340° |
| 2026-04-22 13:41 | 37.05693 | 22.02933 | 33 ft | 15 kts | 349° |
| 2026-04-22 13:41 | 37.05799 | 22.02910 | 33 ft | 16 kts | 351° |
| 2026-04-22 13:41 | 37.05911 | 22.02884 | 34 ft | 17 kts | 349° |
| 2026-04-22 13:41 | 37.06029 | 22.02856 | 34 ft | 19 kts | 350° |
| 2026-04-22 13:42 | 37.06178 | 22.02823 | 33 ft | 25 kts | 349° |
| 2026-04-22 13:42 | 37.06350 | 22.02782 | 34 ft | 26 kts | 349° |
| 2026-04-22 13:42 | 37.06529 | 22.02739 | 33 ft | 27 kts | 349° |
| 2026-04-22 13:42 | 37.06716 | 22.02696 | 33 ft | 28 kts | 349° |
| 2026-04-22 13:43 | 37.06910 | 22.02650 | 34 ft | 29 kts | 350° |
| 2026-04-22 13:43 | 37.07110 | 22.02604 | 34 ft | 30 kts | 349° |
| 2026-04-22 13:43 | 37.07318 | 22.02555 | 34 ft | 31 kts | 349° |
| 2026-04-22 13:43 | 37.07528 | 22.02506 | 33 ft | 29 kts | 349° |
| 2026-04-22 13:44 | 37.07730 | 22.02459 | 34 ft | 30 kts | 349° |
| 2026-04-22 13:44 | 37.07941 | 22.02410 | 34 ft | 31 kts | 349° |
| 2026-04-22 13:44 | 37.08120 | 22.02369 | 34 ft | 19 kts | 350° |
| 2026-04-22 13:44 | 37.08177 | 22.02294 | 34 ft | 14 kts | 257° |
| 2026-04-22 13:45 | 37.08131 | 22.02238 | 34 ft | 9 kts | 166° |
| 2026-04-22 13:45 | 37.08095 | 22.02248 | 34 ft | 0 kts | 170° |
| 2026-04-22 13:46 | 37.08036 | 22.02261 | 35 ft | 35 kts | 170° |
| 2026-04-22 13:46 | 37.07565 | 22.02370 | 32 ft | 99 kts | 169° |
| 2026-04-22 13:47 | 37.06720 | 22.02567 | 33 ft | 146 kts | 169° |
| 2026-04-22 13:47 | 37.05655 | 22.02820 | 443 ft | 155 kts | 167° |
| 2026-04-22 13:47 | 37.04586 | 22.03063 | 1105 ft | 157 kts | 170° |
| 2026-04-22 13:47 | 37.03502 | 22.03296 | 1747 ft | 161 kts | 171° |
| 2026-04-22 13:48 | 37.02323 | 22.03551 | 2083 ft | 182 kts | 171° |
| 2026-04-22 13:48 | 37.01013 | 22.03858 | 2333 ft | 203 kts | 171° |
| 2026-04-22 13:48 | 36.99566 | 22.04209 | 2647 ft | 217 kts | 170° |
| 2026-04-22 13:48 | 36.98067 | 22.04574 | 3280 ft | 221 kts | 170° |
| 2026-04-22 13:49 | 36.96544 | 22.04939 | 3903 ft | 225 kts | 171° |
| 2026-04-22 13:49 | 36.94993 | 22.05309 | 4533 ft | 228 kts | 171° |
| 2026-04-22 13:49 | 36.93416 | 22.05683 | 5151 ft | 233 kts | 172° |
| 2026-04-22 13:49 | 36.91828 | 22.06058 | 5774 ft | 236 kts | 172° |
| 2026-04-22 13:50 | 36.90740 | 22.06312 | 6215 ft | 238 kts | 172° |
| 2026-04-22 13:50 | 36.88546 | 22.06822 | 7034 ft | 242 kts | 173° |
| 2026-04-22 13:50 | 36.86881 | 22.07209 | 7665 ft | 245 kts | 173° |
| 2026-04-22 13:50 | 36.85134 | 22.07302 | 7939 ft | 260 kts | 197° |
| 2026-04-22 13:51 | 36.83484 | 22.06319 | 8203 ft | 270 kts | 226° |
| 2026-04-22 13:51 | 36.82411 | 22.04428 | 8758 ft | 269 kts | 253° |
| 2026-04-22 13:51 | 36.82189 | 22.02138 | 9430 ft | 268 kts | 279° |
| 2026-04-22 13:51 | 36.82848 | 22.00008 | 10088 ft | 272 kts | 304° |
| 2026-04-22 13:52 | 36.84291 | 21.98299 | 10247 ft | 298 kts | 328° |
| 2026-04-22 13:52 | 36.86272 | 21.97326 | 10374 ft | 322 kts | 339° |
| 2026-04-22 13:52 | 36.88454 | 21.96431 | 10656 ft | 336 kts | 339° |
| 2026-04-22 13:52 | 36.90688 | 21.95527 | 11202 ft | 340 kts | 339° |
| 2026-04-22 13:53 | 36.92946 | 21.94615 | 11808 ft | 342 kts | 339° |
| 2026-04-22 13:53 | 36.95219 | 21.93694 | 12409 ft | 344 kts | 338° |
| 2026-04-22 13:53 | 36.97503 | 21.92761 | 13009 ft | 347 kts | 338° |
| 2026-04-22 13:53 | 36.99805 | 21.91815 | 13629 ft | 349 kts | 338° |
| 2026-04-22 13:54 | 37.02121 | 21.90860 | 14171 ft | 352 kts | 338° |
| 2026-04-22 13:54 | 37.04448 | 21.89901 | 14686 ft | 354 kts | 338° |
| 2026-04-22 13:54 | 37.06795 | 21.88932 | 15179 ft | 356 kts | 338° |
| 2026-04-22 13:54 | 37.09154 | 21.87957 | 15692 ft | 358 kts | 337° |
| 2026-04-22 13:55 | 37.11528 | 21.86975 | 16186 ft | 360 kts | 337° |
| 2026-04-22 13:55 | 37.13909 | 21.85989 | 16690 ft | 362 kts | 337° |
| 2026-04-22 13:55 | 37.16313 | 21.84997 | 17225 ft | 365 kts | 337° |
| 2026-04-22 13:55 | 37.18732 | 21.83999 | 17769 ft | 367 kts | 337° |
| 2026-04-22 13:56 | 37.21169 | 21.82993 | 18225 ft | 371 kts | 336° |
| 2026-04-22 13:56 | 37.23628 | 21.81974 | 18648 ft | 373 kts | 337° |
| 2026-04-22 13:56 | 37.26101 | 21.80949 | 19108 ft | 375 kts | 337° |
| 2026-04-22 13:56 | 37.27777 | 21.80255 | 19439 ft | 376 kts | 337° |
| 2026-04-22 13:57 | 37.31079 | 21.78886 | 20078 ft | 378 kts | 337° |
| 2026-04-22 13:57 | 37.33587 | 21.77845 | 20505 ft | 381 kts | 337° |
| 2026-04-22 13:57 | 37.36109 | 21.76794 | 20950 ft | 382 kts | 337° |
| 2026-04-22 13:57 | 37.37783 | 21.76096 | 21248 ft | 383 kts | 337° |
| 2026-04-22 13:58 | 37.40321 | 21.75038 | 21676 ft | 385 kts | 337° |
| 2026-04-22 13:58 | 37.42872 | 21.73976 | 22078 ft | 387 kts | 337° |